Time;durP1;ratioP1;P1;durP2;ratioP2;P2;SDS_P1;SDS_P2;PMS_P1;PMS_P2;Temp;Humidity;BMP_temperature;BMP_pressure;BME280_temperature;BME280_humidity;BME280_pressure;Samples;Min_cycle;Max_cycle;Signal;HPM_P1;HPM_P2
2023/11/24 00:00:04;;;;;;;8.30;2.70;;;;;;;;;;5079154;28;20047;-74
2023/11/24 00:03:17;;;;;;;7.50;3.50;;;;;;;;;;5092263;28;20036;-77
2023/11/24 00:06:21;;;;;;;7.80;2.80;;;;;;;;;;5069138;28;20036;-74
2023/11/24 00:09:29;;;;;;;8.77;2.80;;;;;;;;;;5093426;28;20044;-76
2023/11/24 00:12:33;;;;;;;16.35;4.07;;;;;;;;;;5094005;28;20056;-76
2023/11/24 00:15:37;;;;;;;11.80;4.00;;;;;;;;;;5093479;28;20587;-76
2023/11/24 00:18:41;;;;;;;15.35;4.10;;;;;;;;;;5093241;28;20048;-74
2023/11/24 00:21:46;;;;;;;11.52;3.95;;;;;;;;;;5093138;28;20039;-74
2023/11/24 00:24:51;;;;;;;14.02;3.70;;;;;;;;;;5093026;28;20051;-76
2023/11/24 00:27:56;;;;;;;8.77;4.45;;;;;;;;;;5093109;28;20039;-75
2023/11/24 00:31:03;;;;;;;7.95;3.40;;;;;;;;;;5093109;28;20207;-75
2023/11/24 00:34:07;;;;;;;9.98;4.07;;;;;;;;;;5093331;28;20036;-75
2023/11/24 00:37:12;;;;;;;9.68;3.72;;;;;;;;;;5080857;28;20044;-74
2023/11/24 00:40:18;;;;;;;10.02;3.80;;;;;;;;;;5093929;28;20044;-75
2023/11/24 00:43:22;;;;;;;8.27;3.50;;;;;;;;;;5094103;28;20032;-76
2023/11/24 00:46:26;;;;;;;11.05;3.80;;;;;;;;;;5092654;28;20361;-77
2023/11/24 00:49:32;;;;;;;11.80;3.45;;;;;;;;;;5080377;28;20039;-75
2023/11/24 00:52:37;;;;;;;13.98;4.97;;;;;;;;;;5093815;28;20041;-75
2023/11/24 00:55:40;;;;;;;12.38;3.70;;;;;;;;;;5080997;28;20388;-77
2023/11/24 00:58:45;;;;;;;8.10;3.17;;;;;;;;;;5080840;28;20043;-75
2023/11/24 01:01:49;;;;;;;14.05;3.67;;;;;;;;;;5092592;28;20040;-76
2023/11/24 01:04:54;;;;;;;15.02;4.68;;;;;;;;;;5091441;28;20518;-77
2023/11/24 01:07:58;;;;;;;9.30;3.47;;;;;;;;;;5091424;28;20059;-76
2023/11/24 01:11:03;;;;;;;17.98;7.05;;;;;;;;;;5091871;28;20040;-74
2023/11/24 01:14:07;;;;;;;17.38;6.10;;;;;;;;;;5079501;28;20044;-76
2023/11/24 01:17:11;;;;;;;15.50;4.72;;;;;;;;;;5080601;28;20040;-75
2023/11/24 01:20:16;;;;;;;13.93;3.20;;;;;;;;;;5092152;28;20054;-75
2023/11/24 01:23:21;;;;;;;10.30;3.65;;;;;;;;;;5083465;28;20051;-74
2023/11/24 01:26:25;;;;;;;12.02;3.70;;;;;;;;;;5083761;28;20032;-75
2023/11/24 01:29:31;;;;;;;10.18;3.53;;;;;;;;;;5096562;28;20502;-75
2023/11/24 01:32:36;;;;;;;9.05;3.42;;;;;;;;;;5084437;28;20032;-74
2023/11/24 01:35:40;;;;;;;7.47;2.80;;;;;;;;;;5096742;28;20036;-75
2023/11/24 01:38:44;;;;;;;10.30;2.58;;;;;;;;;;5096754;28;20372;-76
2023/11/24 01:41:49;;;;;;;10.23;2.90;;;;;;;;;;5096584;28;20047;-76
2023/11/24 01:44:53;;;;;;;14.45;3.65;;;;;;;;;;5096692;28;20443;-74
2023/11/24 01:47:57;;;;;;;9.48;3.10;;;;;;;;;;5083373;28;20044;-74
2023/11/24 01:51:02;;;;;;;9.13;3.40;;;;;;;;;;5084069;28;20040;-75
2023/11/24 01:54:06;;;;;;;8.80;3.22;;;;;;;;;;5083623;28;20031;-74
2023/11/24 01:57:13;;;;;;;15.63;3.80;;;;;;;;;;5096521;28;20039;-76
2023/11/24 02:00:18;;;;;;;11.57;4.13;;;;;;;;;;5083657;28;20532;-75
2023/11/24 02:03:22;;;;;;;8.57;3.40;;;;;;;;;;5096192;28;20036;-74
2023/11/24 02:06:27;;;;;;;7.10;2.80;;;;;;;;;;5082069;28;20032;-76
2023/11/24 02:09:33;;;;;;;7.63;3.28;;;;;;;;;;5094626;28;20052;-74
2023/11/24 02:12:37;;;;;;;7.25;3.10;;;;;;;;;;5094675;28;20369;-75
2023/11/24 02:15:42;;;;;;;10.13;3.38;;;;;;;;;;5094387;28;20028;-75
2023/11/24 02:18:46;;;;;;;11.43;4.18;;;;;;;;;;5082336;28;20036;-74
2023/11/24 02:21:50;;;;;;;4.78;3.00;;;;;;;;;;5082072;28;20040;-74
2023/11/24 02:24:55;;;;;;;12.40;4.35;;;;;;;;;;5094118;28;20032;-74
2023/11/24 02:28:00;;;;;;;10.63;4.18;;;;;;;;;;5094129;28;20043;-75
2023/11/24 02:31:04;;;;;;;9.15;3.58;;;;;;;;;;5094450;28;20051;-76
2023/11/24 02:34:08;;;;;;;11.27;3.33;;;;;;;;;;5080441;28;20040;-75
2023/11/24 02:37:12;;;;;;;10.75;3.25;;;;;;;;;;5082072;28;20047;-75
2023/11/24 02:40:17;;;;;;;10.80;3.72;;;;;;;;;;5094022;28;20051;-75
2023/11/24 02:43:21;;;;;;;6.57;2.90;;;;;;;;;;5082035;28;20063;-75
2023/11/24 02:46:25;;;;;;;8.88;3.55;;;;;;;;;;5081572;28;20040;-75
2023/11/24 02:49:32;;;;;;;7.47;2.88;;;;;;;;;;5093871;28;20376;-75
2023/11/24 02:52:36;;;;;;;10.60;3.30;;;;;;;;;;5093464;28;20040;-76
2023/11/24 02:55:40;;;;;;;9.68;3.08;;;;;;;;;;5093830;28;20040;-75
2023/11/24 02:58:45;;;;;;;8.63;3.70;;;;;;;;;;5093303;28;20036;-75
2023/11/24 03:01:51;;;;;;;10.07;3.08;;;;;;;;;;5093689;28;20499;-75
2023/11/24 03:04:55;;;;;;;11.32;4.13;;;;;;;;;;5093433;28;20032;-75
2023/11/24 03:07:59;;;;;;;11.63;3.55;;;;;;;;;;5081023;28;20407;-74
2023/11/24 03:11:06;;;;;;;7.28;3.03;;;;;;;;;;5080950;28;20036;-75
2023/11/24 03:14:10;;;;;;;11.52;3.13;;;;;;;;;;5092914;28;20036;-75
2023/11/24 03:17:15;;;;;;;9.93;3.00;;;;;;;;;;5093106;28;20043;-76
2023/11/24 03:20:21;;;;;;;9.30;3.20;;;;;;;;;;5080654;28;20040;-75
2023/11/24 03:23:25;;;;;;;9.05;3.50;;;;;;;;;;5093558;28;20040;-75
2023/11/24 03:26:30;;;;;;;8.23;3.42;;;;;;;;;;5069462;28;20036;-75
2023/11/24 03:29:37;;;;;;;9.25;3.15;;;14.00;99.90;;;;;;5092951;28;20049;-75
2023/11/24 03:32:41;;;;;;;8.95;4.18;;;;;;;;;;5080257;28;20447;-75
2023/11/24 03:35:48;;;;;;;13.52;4.60;;;;;;;;;;5092807;28;20036;-74
2023/11/24 03:38:53;;;;;;;12.52;4.57;;;;;;;;;;5092494;28;20202;-74
2023/11/24 03:41:57;;;;;;;11.15;3.70;;;;;;;;;;5092646;28;20032;-75
2023/11/24 03:45:01;;;;;;;11.90;3.80;;;;;;;;;;5079432;28;20506;-74
2023/11/24 03:48:06;;;;;;;10.70;3.95;;;;;;;;;;5091998;28;20032;-75
2023/11/24 03:51:10;;;;;;;10.18;3.80;;;;;;;;;;5092436;28;20036;-75
2023/11/24 03:54:14;;;;;;;8.23;4.70;;;;;;;;;;5079692;28;20047;-75
2023/11/24 03:57:19;;;;;;;11.80;4.45;;;;;;;;;;5092151;28;20036;-75
2023/11/24 04:00:23;;;;;;;10.85;4.55;;;;;;;;;;5079242;28;20055;-75
2023/11/24 04:03:27;;;;;;;11.73;4.05;;;;;;;;;;5091842;28;20039;-75
2023/11/24 04:06:31;;;;;;;9.43;3.67;;;;;;;;;;5079544;28;20499;-75
2023/11/24 04:09:36;;;;;;;10.02;3.88;;;;;;;;;;5079154;28;20535;-75
2023/11/24 04:12:41;;;;;;;8.27;3.70;;;;;;;;;;5079487;28;20051;-75
2023/11/24 04:15:45;;;;;;;9.52;3.92;;;;;;;;;;5091531;28;20377;-75
2023/11/24 04:18:50;;;;;;;15.95;4.70;;;;;;;;;;5092193;28;20036;-75
2023/11/24 04:21:55;;;;;;;17.05;4.65;;;;;;;;;;5092082;28;20504;-75
2023/11/24 04:25:00;;;;;;;12.68;4.28;;;;;;;;;;5079302;28;20439;-75
2023/11/24 04:28:04;;;;;;;12.98;4.57;;;;;;;;;;5091678;28;20404;-75
2023/11/24 04:31:09;;;;;;;9.73;3.90;;;;;;;;;;5091606;28;20495;-74
2023/11/24 04:34:13;;;;;;;11.68;4.65;;;;;;;;;;5091201;28;20040;-75
2023/11/24 04:37:20;;;;;;;13.00;4.63;;;;;;;;;;5091241;28;20107;-74
2023/11/24 04:40:24;;;;;;;16.75;6.35;;;;;;;;;;5091202;28;20052;-74
2023/11/24 04:43:28;;;;;;;14.88;5.38;;;;;;;;;;5091411;28;20048;-74
2023/11/24 04:46:33;;;;;;;16.60;5.68;;;;;;;;;;5091305;28;20518;-74
2023/11/24 04:49:37;;;;;;;13.82;5.15;;;;;;;;;;5091504;28;20384;-74
2023/11/24 04:52:41;;;;;;;10.80;4.60;;;;;;;;;;5091187;28;20051;-75
2023/11/24 04:55:45;;;;;;;13.13;5.18;;;;;;;;;;5091176;28;20395;-75
2023/11/24 04:58:50;;;;;;;17.83;5.32;;;;;;;;;;5095392;28;20047;-75
2023/11/24 05:01:54;;;;;;;12.95;4.95;;;;;;;;;;5095596;28;20044;-75
2023/11/24 05:04:59;;;;;;;10.43;4.65;;;;;;;;;;5095562;28;20035;-75
2023/11/24 05:08:03;;;;;;;13.23;5.40;;;;;;;;;;5095403;28;20048;-75
2023/11/24 05:11:07;;;;;;;16.13;6.78;;;;;;;;;;5095260;28;20032;-75
2023/11/24 05:14:12;;;;;;;10.50;5.00;;;;;;;;;;5095051;28;20380;-74
2023/11/24 05:17:16;;;;;;;11.30;6.10;;;;;;;;;;5095294;28;20040;-74
2023/11/24 05:20:23;;;;;;;10.38;6.40;;;;;;;;;;5095138;28;20048;-74
2023/11/24 05:23:28;;;;;;;12.07;6.20;;;;;;;;;;5095339;28;20047;-75
2023/11/24 05:26:32;;;;;;;14.23;6.43;;;;;;;;;;5094957;28;20052;-75
2023/11/24 05:29:36;;;;;;;15.20;6.80;;;;;;;;;;5095185;28;20035;-75
2023/11/24 05:32:41;;;;;;;18.02;7.32;;;;;;;;;;5095025;28;20502;-75
2023/11/24 05:35:45;;;;;;;18.48;6.80;;;;;;;;;;5094618;28;20376;-75
2023/11/24 05:38:50;;;;;;;17.85;7.13;;;;;;;;;;5094758;28;20043;-74
2023/11/24 05:41:54;;;;;;;12.95;7.53;;;;;;;;;;5094745;28;20043;-75
2023/11/24 05:45:01;;;;;;;19.55;7.68;;;;;;;;;;5094538;28;20035;-75
2023/11/24 05:48:08;;;;;;;20.17;7.03;;;;;;;;;;5095026;28;20040;-75
2023/11/24 05:51:12;;;;;;;18.50;8.57;;;;;;;;;;5094964;28;20036;-74
2023/11/24 05:54:17;;;;;;;20.90;11.38;;;;;;;;;;5095322;28;20036;-73
2023/11/24 05:57:21;;;;;;;24.52;10.90;;;;;;;;;;5095142;28;20043;-75
2023/11/24 06:00:25;;;;;;;20.73;9.13;;;;;;;;;;5070630;28;20051;-75
2023/11/24 06:03:30;;;;;;;19.83;10.13;;;;;;;;;;5095071;28;20041;-76
2023/11/24 06:06:35;;;;;;;24.15;7.97;;;;;;;;;;5095513;28;20368;-74
2023/11/24 06:09:39;;;;;;;16.70;10.27;;;;;;;;;;5094972;28;20507;-74
2023/11/24 06:12:44;;;;;;;37.70;14.65;;;;;;;;;;5094724;28;20391;-75
2023/11/24 06:15:48;;;;;;;31.08;12.82;;;;;;;;;;5094638;28;20043;-74
2023/11/24 06:18:53;;;;;;;21.02;10.25;;;;;;;;;;5095062;28;20042;-74
2023/11/24 06:21:58;;;;;;;24.55;11.70;;;;;;;;;;5094580;28;20043;-73
2023/11/24 06:25:02;;;;;;;25.05;9.02;;;;;;;;;;5094730;28;20047;-74
2023/11/24 06:28:07;;;;;;;19.60;9.10;;;;;;;;;;5094429;28;20040;-74
2023/11/24 06:31:14;;;;;;;28.45;11.73;;;12.90;99.90;;;;;;5081850;28;20048;-74
2023/11/24 06:34:18;;;;;;;22.65;12.02;;;;;;;;;;5094109;28;20463;-73
2023/11/24 06:37:23;;;;;;;19.63;10.35;;;;;;;;;;5093982;28;20058;-74
2023/11/24 06:40:27;;;;;;;25.73;9.95;;;;;;;;;;5081425;28;20483;-74
2023/11/24 06:43:31;;;;;;;28.08;8.07;;;;;;;;;;5094422;28;20040;-73
2023/11/24 06:46:36;;;;;;;20.52;7.60;;;;;;;;;;5093953;28;20048;-71
2023/11/24 06:49:41;;;;;;;24.42;8.35;;;;;;;;;;5080928;28;20035;-70
2023/11/24 06:52:45;;;;;;;21.75;7.82;;;;;;;;;;5069233;28;20067;-70
2023/11/24 06:55:49;;;;;;;25.70;9.13;;;;;;;;;;5093324;28;20591;-70
2023/11/24 06:58:54;;;;;;;20.73;9.60;;;;;;;;;;5093213;28;20381;-70
2023/11/24 07:02:00;;;;;;;77.85;32.35;;;;;;;;;;5092886;28;20395;-70
2023/11/24 07:05:04;;;;;;;119.97;60.10;;;;;;;;;;5092777;28;20043;-71
2023/11/24 07:08:09;;;;;;;250.60;118.57;;;;;;;;;;5092558;28;20516;-69
2023/11/24 07:11:13;;;;;;;495.73;264.52;;;;;;;;;;5092486;28;20051;-70
2023/11/24 07:14:17;;;;;;;554.70;310.83;;;;;;;;;;5092348;28;20499;-72
2023/11/24 07:17:22;;;;;;;493.88;277.42;;;;;;;;;;5092608;28;20059;-69
2023/11/24 07:20:27;;;;;;;340.30;174.18;;;;;;;;;;5091857;28;20047;-69
2023/11/24 07:23:32;;;;;;;230.68;117.40;;;;;;;;;;5092771;28;20047;-70
2023/11/24 07:26:36;;;;;;;179.50;93.65;;;;;;;;;;5092577;28;20047;-69
2023/11/24 07:29:41;;;;;;;100.07;49.22;;;;;;;;;;5092642;28;20443;-71
2023/11/24 07:32:45;;;;;;;70.32;36.55;;;;;;;;;;5092475;28;20043;-71
2023/11/24 07:35:52;;;;;;;56.13;27.15;;;;;;;;;;5080005;28;20047;-70
2023/11/24 07:38:58;;;;;;;45.40;17.80;;;;;;;;;;5079844;28;20043;-71
2023/11/24 07:42:02;;;;;;;38.45;14.32;;;;;;;;;;5092380;28;20063;-71
2023/11/24 07:45:10;;;;;;;35.45;11.98;;;;;;;;;;5080459;28;20039;-73
2023/11/24 07:48:15;;;;;;;22.75;10.63;;;;;;;;;;5092118;28;20043;-72
2023/11/24 07:51:19;;;;;;;37.38;12.63;;;;;;;;;;5092818;28;20055;-70
2023/11/24 07:54:24;;;;;;;33.38;13.73;;;;;;;;;;5079677;28;20407;-69
2023/11/24 07:57:29;;;;;;;29.63;12.70;;;;;;;;;;5092423;28;20039;-70
2023/11/24 08:00:34;;;;;;;30.70;15.95;;;;;;;;;;5092317;28;20051;-72
2023/11/24 08:03:38;;;;;;;30.15;11.88;;;;;;;;;;5092598;28;20051;-73
2023/11/24 08:06:43;;;;;;;27.25;11.25;;;;;;;;;;5092297;28;20415;-71
2023/11/24 08:09:47;;;;;;;19.73;9.95;;;;;;;;;;5091614;28;20162;-72
2023/11/24 08:12:52;;;;;;;16.40;7.97;;;;;;;;;;5092059;28;20035;-72
2023/11/24 08:15:56;;;;;;;22.10;9.65;;;;;;;;;;5092860;28;20403;-74
2023/11/24 08:19:00;;;;;;;18.58;8.68;;;;;;;;;;5092784;28;20494;-71
2023/11/24 08:22:07;;;;;;;20.85;10.23;;;;;;;;;;5091159;28;20047;-70
2023/11/24 08:25:15;;;;;;;18.45;8.68;;;;;;;;;;5091422;28;20047;-71
2023/11/24 08:28:20;;;;;;;14.95;8.05;;;;;;;;;;5091974;28;20044;-70
2023/11/24 08:31:24;;;;;;;16.95;9.07;;;;;;;;;;5079653;28;20035;-70
2023/11/24 08:34:29;;;;;;;15.20;7.57;;;;;;;;;;5079468;28;20036;-70
2023/11/24 08:37:36;;;;;;;9.98;6.05;;;;;;;;;;5078921;28;20040;-71
2023/11/24 08:40:41;;;;;;;13.50;5.60;;;;;;;;;;5091391;28;20044;-69
2023/11/24 08:43:46;;;;;;;15.13;7.43;;;;;;;;;;5091281;28;20059;-69
2023/11/24 08:46:54;;;;;;;15.93;6.70;;;;;;;;;;5091439;28;20143;-69
2023/11/24 08:49:58;;;;;;;15.25;5.70;;;;;;;;;;5091163;28;20039;-70
2023/11/24 08:53:04;;;;;;;22.50;6.80;;;;;;;;;;5091263;28;20107;-68
2023/11/24 08:56:10;;;;;;;21.27;8.75;;;;;;;;;;5078807;28;20497;-69
2023/11/24 08:59:15;;;;;;;16.83;7.00;;;;;;;;;;5078507;28;20032;-71
2023/11/24 09:02:19;;;;;;;10.40;5.22;;;;;;;;;;5055983;28;20400;-69
2023/11/24 09:05:26;;;;;;;17.90;5.80;;;;;;;;;;5091093;28;20044;-69
2023/11/24 09:08:31;;;;;;;11.60;6.10;;;;;;;;;;5091044;28;20234;-71
2023/11/24 09:11:35;;;;;;;14.38;5.45;;;;;;;;;;5091308;28;20043;-70
2023/11/24 09:14:40;;;;;;;13.02;5.25;;;;;;;;;;5078845;28;20067;-70
2023/11/24 09:17:44;;;;;;;15.73;6.10;;;;;;;;;;5090816;28;20036;-70
2023/11/24 09:20:48;;;;;;;14.88;5.80;;;;;;;;;;5091093;28;20044;-69
2023/11/24 09:23:53;;;;;;;13.00;6.18;;;;;;;;;;5091546;28;20040;-71
2023/11/24 09:26:57;;;;;;;19.60;6.25;;;;;;;;;;5079361;28;20110;-69
2023/11/24 09:30:04;;;;;;;12.65;5.43;;;;;;;;;;5091166;28;20043;-70
2023/11/24 09:33:09;;;;;;;20.38;7.50;;;;;;;;;;5078594;28;20036;-69
2023/11/24 09:36:13;;;;;;;18.45;7.35;;;;;;;;;;5091210;28;20047;-70
2023/11/24 09:39:18;;;;;;;17.85;6.70;;;;;;;;;;5090769;28;20032;-71
2023/11/24 09:42:23;;;;;;;15.73;6.72;;;17.90;98.40;;;;;;5091935;28;20040;-70
2023/11/24 09:45:28;;;;;;;20.15;6.60;;;18.80;98.60;;;;;;5095185;28;20043;-70
2023/11/24 09:48:35;;;;;;;16.60;6.82;;;18.90;98.00;;;;;;5082544;28;20043;-70
2023/11/24 09:51:39;;;;;;;21.60;7.38;;;;;;;;;;5094729;28;20047;-70
2023/11/24 09:54:44;;;;;;;25.38;7.00;;;;;;;;;;5094336;28;20051;-72
2023/11/24 09:57:51;;;;;;;22.63;7.15;;;19.90;96.40;;;;;;5094346;28;20044;-71
2023/11/24 10:01:02;;;;;;;16.73;7.20;;;19.20;95.90;;;;;;5094570;28;20080;-71
2023/11/24 10:04:06;;;;;;;15.60;5.47;;;21.90;96.30;;;;;;5081828;28;20376;-71
2023/11/24 10:07:23;;;;;;;14.18;4.57;;;19.20;95.90;;;;;;5094289;28;20633;-71
2023/11/24 10:10:28;;;;;;;16.45;4.95;;;19.10;95.80;;;;;;5054487;28;20052;-71
2023/11/24 10:13:34;;;;;;;15.57;5.15;;;;;;;;;;5054074;28;20044;-72
2023/11/24 10:16:40;;;;;;;15.68;5.47;;;;;;;;;;5054800;28;20044;-70
2023/11/24 10:19:44;;;;;;;12.15;5.43;;;;;;;;;;5053686;28;20518;-71
2023/11/24 10:22:52;;;;;;;12.32;4.53;;;18.70;96.20;;;;;;5052933;28;20037;-70
2023/11/24 10:26:01;;;;;;;14.95;4.93;;;18.70;96.30;;;;;;5052939;28;20500;-72
2023/11/24 10:29:06;;;;;;;24.77;7.35;;;;;;;;;;5053996;28;20044;-70
2023/11/24 10:32:10;;;;;;;20.33;5.70;;;;;;;;;;5053464;28;20509;-68
2023/11/24 10:35:15;;;;;;;16.65;5.50;;;;;;;;;;5053246;28;20044;-72
2023/11/24 10:38:20;;;;;;;18.40;6.95;;;;;;;;;;5053556;28;20044;-71
2023/11/24 10:41:26;;;;;;;22.35;6.18;;;18.60;97.00;;;;;;5053160;28;20053;-69
2023/11/24 10:44:30;;;;;;;16.23;6.00;;;;;;;;;;5053029;28;20044;-69
2023/11/24 10:47:38;;;;;;;29.23;7.90;;;18.60;97.20;;;;;;5052908;28;20381;-68
2023/11/24 10:50:58;;;;;;;23.52;8.02;;;18.80;97.10;;;;;;5053131;28;20048;-69
2023/11/24 10:54:07;;;;;;;22.60;7.97;;;18.60;96.90;;;;;;5052018;28;20495;-69
2023/11/24 10:57:11;;;;;;;35.03;10.00;;;;;;;;;;5052890;28;20048;-70
2023/11/24 11:00:20;;;;;;;21.38;9.45;;;;;;;;;;5052867;28;20056;-70
2023/11/24 11:03:25;;;;;;;28.38;11.90;;;;;;;;;;5051769;28;20044;-69
2023/11/24 11:06:49;;;;;;;21.75;10.38;;;19.50;96.30;;;;;;5053310;28;20407;-71
2023/11/24 11:10:02;;;;;;;31.88;13.63;;;19.30;96.30;;;;;;5092823;28;20526;-70
2023/11/24 11:13:06;;;;;;;32.55;12.50;;;;;;;;;;5092857;28;20661;-70
2023/11/24 11:16:14;;;;;;;36.15;13.65;;;18.90;96.20;;;;;;5092978;28;20039;-68
2023/11/24 11:19:33;;;;;;;32.20;11.02;;;18.00;96.50;;;;;;5092748;28;20150;-70
2023/11/24 11:22:37;;;;;;;26.25;9.82;;;;;;;;;;5092760;28;20055;-69
2023/11/24 11:25:46;;;;;;;25.48;10.00;;;18.80;97.10;;;;;;5092304;28;20048;-70
2023/11/24 11:28:57;;;;;;;27.10;8.38;;;18.50;97.60;;;;;;5080583;28;20051;-69
2023/11/24 11:32:10;;;;;;;22.17;6.70;;;19.60;97.90;;;;;;5092731;28;20527;-69
2023/11/24 11:35:15;;;;;;;22.73;7.43;;;;;;;;;;5092106;28;20510;-69
2023/11/24 11:38:50;;;;;;;20.83;6.70;;;18.60;98.00;;;;;;5092388;28;20040;-68
2023/11/24 11:41:55;;;;;;;20.80;6.22;;;18.60;98.20;;;;;;5092547;28;20051;-68
2023/11/24 11:45:09;;;;;;;480.90;47.65;;;18.60;98.10;;;;;;5092058;28;20035;-70
2023/11/24 11:48:14;;;;;;;173.93;20.40;;;;;;;;;;5092374;28;20047;-70
2023/11/24 11:51:22;;;;;;;18.00;6.03;;;18.80;98.40;;;;;;5092208;28;20514;-71
2023/11/24 11:54:27;;;;;;;24.95;6.53;;;18.70;97.70;;;;;;5079677;28;20051;-72
2023/11/24 11:57:32;;;;;;;19.85;6.32;;;;;;;;;;5091888;28;20043;-70
2023/11/24 12:00:38;;;;;;;21.13;6.18;;;18.70;97.60;;;;;;5091639;28;20067;-71
2023/11/24 12:03:43;;;;;;;17.67;5.90;;;18.70;97.60;;;;;;5091634;28;20043;-70
2023/11/24 12:06:51;;;;;;;23.45;6.25;;;;;;;;;;5091521;28;20046;-70
2023/11/24 12:09:56;;;;;;;12.82;5.28;;;;;;;;;;5091788;28;20048;-71
2023/11/24 12:13:04;;;;;;;12.13;4.88;;;;;;;;;;5091667;28;20052;-71
2023/11/24 12:16:09;;;;;;;20.10;6.93;;;;;;;;;;5091816;28;20043;-71
2023/11/24 12:19:13;;;;;;;18.95;5.80;;;;;;;;;;5092203;28;20514;-71
2023/11/24 12:22:18;;;;;;;17.25;6.22;;;18.90;97.30;;;;;;5092295;28;20056;-71
2023/11/24 12:25:23;;;;;;;18.02;7.10;;;;;;;;;;5091297;28;20047;-70
2023/11/24 12:28:27;;;;;;;15.95;6.15;;;;;;;;;;5091575;28;20050;-72
2023/11/24 12:31:32;;;;;;;18.42;4.80;;;;;;;;;;5091504;28;20039;-72
2023/11/24 12:34:41;;;;;;;15.10;4.03;;;;;;;;;;5091546;28;20395;-70
2023/11/24 12:37:49;;;;;;;16.60;2.95;;;;;;;;;;5092123;28;20047;-71
2023/11/24 12:40:54;;;;;;;15.00;3.25;;;;;;;;;;5091291;28;20435;-71
2023/11/24 12:43:59;;;;;;;13.18;3.38;;;19.10;97.00;;;;;;5079196;28;20051;-71
2023/11/24 12:47:27;;;;;;;13.65;3.15;;;19.00;96.90;;;;;;5091601;28;20051;-71
2023/11/24 12:50:31;;;;;;;15.10;3.80;;;;;;;;;;5091425;28;20047;-71
2023/11/24 12:53:35;;;;;;;19.65;3.75;;;;;;;;;;5091305;28;20032;-71
2023/11/24 12:56:39;;;;;;;12.30;3.30;;;;;;;;;;5091011;28;20036;-71
2023/11/24 12:59:45;;;;;;;9.30;2.90;;;18.20;96.90;;;;;;5090986;28;20047;-72
2023/11/24 13:02:49;;;;;;;19.77;3.30;;;;;;;;;;5090983;28;20055;-69
2023/11/24 13:05:53;;;;;;;15.68;3.65;;;;;;;;;;5091316;28;20419;-70
2023/11/24 13:08:59;;;;;;;15.27;3.05;;;;;;;;;;5091314;28;20044;-69
2023/11/24 13:12:04;;;;;;;16.88;3.72;;;;;;;;;;5091408;28;20032;-70
2023/11/24 13:15:12;;;;;;;19.15;4.35;;;;;;;;;;5091690;28;20048;-71
2023/11/24 13:18:18;;;;;;;16.27;4.40;;;;;;;;;;5093538;28;20040;-71
2023/11/24 13:21:23;;;;;;;20.27;4.18;;;;;;;;;;5095383;28;20052;-72
2023/11/24 13:24:31;;;;;;;21.60;4.32;;;;;;;;;;5095132;28;20047;-72
2023/11/24 13:27:37;;;;;;;16.77;5.07;;;18.70;99.10;;;;;;5082395;28;20047;-69
2023/11/24 13:30:41;;;;;;;18.48;5.07;;;;;;;;;;5094938;28;20209;-73
2023/11/24 13:33:45;;;;;;;19.42;5.00;;;;;;;;;;5070942;28;20035;-70
2023/11/24 13:36:50;;;;;;;19.58;5.18;;;;;;;;;;5094855;28;20047;-70
2023/11/24 13:39:54;;;;;;;20.15;4.47;;;;;;;;;;5092374;28;20040;-68
2023/11/24 13:42:59;;;;;;;20.85;5.45;;;;;;;;;;5081920;28;20416;-70
2023/11/24 13:46:03;;;;;;;25.73;5.68;;;;;;;;;;5094448;28;20046;-70
2023/11/24 13:49:10;;;;;;;20.05;5.32;;;;;;;;;;5094664;28;20046;-69
2023/11/24 13:52:16;;;;;;;19.05;5.20;;;18.30;99.90;;;;;;5094349;28;20043;-69
2023/11/24 13:55:21;;;;;;;21.45;4.85;;;;;;;;;;5094138;28;20039;-70
2023/11/24 13:58:25;;;;;;;26.70;5.75;;;;;;;;;;5094285;28;20040;-70
2023/11/24 14:01:29;;;;;;;35.45;6.45;;;;;;;;;;5094250;28;20059;-69
2023/11/24 14:04:35;;;;;;;24.70;6.53;;;;;;;;;;5094110;28;20369;-70
2023/11/24 14:07:40;;;;;;;37.92;9.75;;;;;;;;;;5094036;28;20102;-70
2023/11/24 14:10:44;;;;;;;30.95;6.13;;;;;;;;;;5094693;28;20040;-70
2023/11/24 14:13:48;;;;;;;23.38;5.82;;;;;;;;;;5094070;28;20379;-70
2023/11/24 14:16:52;;;;;;;24.63;5.82;;;;;;;;;;5081411;28;20032;-70
2023/11/24 14:19:57;;;;;;;21.17;5.40;;;;;;;;;;5094043;28;20043;-70
2023/11/24 14:23:02;;;;;;;23.60;5.80;;;;;;;;;;5094272;28;20047;-69
2023/11/24 14:26:08;;;;;;;22.73;6.20;;;;;;;;;;5093961;28;20219;-70
2023/11/24 14:29:12;;;;;;;30.33;7.70;;;;;;;;;;5093806;28;20051;-69
2023/11/24 14:32:16;;;;;;;30.27;7.28;;;;;;;;;;5093931;28;20039;-69
2023/11/24 14:35:20;;;;;;;31.83;7.63;;;;;;;;;;5093445;28;20040;-69
2023/11/24 14:38:29;;;;;;;34.63;8.68;;;;;;;;;;5093463;28;20629;-70
2023/11/24 14:41:34;;;;;;;30.98;7.05;;;;;;;;;;5093121;28;20056;-71
2023/11/24 14:44:39;;;;;;;30.70;8.20;;;;;;;;;;5093363;28;20142;-70
2023/11/24 14:47:48;;;;;;;25.23;6.10;;;;;;;;;;5093433;28;20058;-70
2023/11/24 14:50:53;;;;;;;26.63;7.38;;;;;;;;;;5082179;28;20051;-69
2023/11/24 14:53:58;;;;;;;22.40;6.40;;;;;;;;;;5093130;28;20038;-70
2023/11/24 14:57:02;;;;;;;26.83;6.28;;;;;;;;;;5093179;28;20040;-69
2023/11/24 15:00:23;;;;;;;24.17;6.00;;;;;;;;;;5093016;28;20504;-69
2023/11/24 15:03:35;;;;;;;28.20;6.78;;;;;;;;;;5092806;28;20404;-71
2023/11/24 15:06:39;;;;;;;26.27;7.07;;;;;;;;;;5093069;28;20479;-69
2023/11/24 15:09:45;;;;;;;21.30;5.13;;;;;;;;;;5092560;28;20059;-69
2023/11/24 15:12:50;;;;;;;20.95;4.80;;;;;;;;;;5092988;28;20051;-71
2023/11/24 15:15:58;;;;;;;16.63;4.88;;;;;;;;;;5080404;28;20502;-70
2023/11/24 15:19:03;;;;;;;22.90;6.65;;;;;;;;;;5092577;28;20055;-69
2023/11/24 15:22:15;;;;;;;24.95;6.65;;;;;;;;;;5092580;28;20044;-69
2023/11/24 15:25:26;;;;;;;21.85;7.45;;;;;;;;;;5092477;28;20032;-69
2023/11/24 15:28:33;;;;;;;26.75;7.80;;;;;;;;;;5092538;28;20032;-68
2023/11/24 15:31:41;;;;;;;24.83;8.10;;;;;;;;;;5092389;28;20036;-69
2023/11/24 15:34:46;;;;;;;22.65;6.90;;;;;;;;;;5092482;28;20036;-69
2023/11/24 15:37:50;;;;;;;20.92;7.13;;;;;;;;;;5092490;28;20047;-70
2023/11/24 15:40:55;;;;;;;22.83;9.02;;;;;;;;;;5091437;28;20062;-70
2023/11/24 15:44:06;;;;;;;19.08;8.40;;;17.10;99.90;;;;;;5092086;28;20039;-70
2023/11/24 15:47:11;;;;;;;27.38;10.07;;;;;;;;;;5091991;28;20491;-70
2023/11/24 15:50:15;;;;;;;25.17;8.57;;;;;;;;;;5092180;28;20395;-70
2023/11/24 15:53:21;;;;;;;24.77;9.93;;;;;;;;;;5092008;28;20048;-70
2023/11/24 15:56:27;;;;;;;26.55;10.00;;;;;;;;;;5090375;28;20146;-71
2023/11/24 15:59:31;;;;;;;28.42;11.95;;;;;;;;;;5091700;28;20051;-70
2023/11/24 16:02:37;;;;;;;32.95;12.82;;;;;;;;;;5091609;28;20396;-69
2023/11/24 16:05:49;;;;;;;31.23;10.57;;;16.50;99.90;;;;;;5091553;28;20046;-70
2023/11/24 16:08:59;;;;;;;26.50;11.00;;;;;;;;;;5091035;28;20059;-68
2023/11/24 16:12:13;;;;;;;20.58;10.07;;;;;;;;;;5091344;28;20054;-70
2023/11/24 16:15:17;;;;;;;26.90;10.93;;;;;;;;;;5091775;28;20396;-68
2023/11/24 16:18:24;;;;;;;38.90;13.13;;;16.70;99.90;;;;;;5091665;28;20514;-69
2023/11/24 16:21:28;;;;;;;32.50;11.27;;;;;;;;;;5091155;28;20067;-70
2023/11/24 16:24:32;;;;;;;30.17;12.95;;;;;;;;;;5091315;28;20043;-71
2023/11/24 16:27:37;;;;;;;33.10;15.20;;;;;;;;;;5091235;28;20047;-70
2023/11/24 16:30:45;;;;;;;30.52;10.70;;;;;;;;;;5091463;28;20038;-67
2023/11/24 16:33:49;;;;;;;30.13;8.77;;;;;;;;;;5091239;28;20047;-70
2023/11/24 16:36:57;;;;;;;31.60;10.85;;;;;;;;;;5091152;28;20059;-70
2023/11/24 16:40:02;;;;;;;25.85;8.35;;;;;;;;;;5091144;28;20043;-69
2023/11/24 16:43:07;;;;;;;33.53;13.30;;;;;;;;;;5091341;28;20039;-69
2023/11/24 16:46:11;;;;;;;27.38;12.02;;;;;;;;;;5091223;28;20399;-69
2023/11/24 16:49:15;;;;;;;26.92;11.57;;;;;;;;;;5091231;28;20051;-69
2023/11/24 16:52:23;;;;;;;23.33;10.65;;;;;;;;;;5089768;28;20051;-70
2023/11/24 16:55:29;;;;;;;23.73;9.65;;;;;;;;;;5090959;28;20502;-71
2023/11/24 16:58:33;;;;;;;26.30;10.73;;;;;;;;;;5091260;28;20502;-70
2023/11/24 17:01:38;;;;;;;32.08;13.35;;;;;;;;;;5091116;28;20403;-75
2023/11/24 17:04:43;;;;;;;30.83;15.45;;;;;;;;;;5091192;28;20055;-70
2023/11/24 17:07:48;;;;;;;31.05;13.23;;;16.40;99.90;;;;;;5091077;28;20035;-70
2023/11/24 17:10:53;;;;;;;29.75;13.90;;;;;;;;;;5091187;28;20047;-70
2023/11/24 17:13:57;;;;;;;32.30;17.85;;;;;;;;;;5078465;28;20039;-70
2023/11/24 17:17:01;;;;;;;31.15;17.40;;;;;;;;;;5078452;28;20133;-70
2023/11/24 17:20:10;;;;;;;34.28;14.73;;;16.60;99.90;;;;;;5078542;28;20039;-70
2023/11/24 17:23:16;;;;;;;27.08;11.80;;;;;;;;;;5090678;28;20052;-70
2023/11/24 17:26:20;;;;;;;31.35;12.30;;;;;;;;;;5090795;28;20090;-69
2023/11/24 17:29:24;;;;;;;25.35;13.63;;;;;;;;;;5090790;28;20043;-69
2023/11/24 17:32:28;;;;;;;33.13;14.55;;;;;;;;;;5090900;28;20107;-70
2023/11/24 17:35:33;;;;;;;34.50;15.73;;;;;;;;;;5090655;28;20047;-68
2023/11/24 17:38:38;;;;;;;29.88;15.27;;;;;;;;;;5090712;28;20814;-70
2023/11/24 17:41:42;;;;;;;30.35;14.32;;;;;;;;;;5090574;28;20407;-70
2023/11/24 17:44:46;;;;;;;33.80;15.23;;;;;;;;;;5090995;28;20051;-68
2023/11/24 17:47:51;;;;;;;35.80;17.33;;;;;;;;;;5090663;28;20533;-68
2023/11/24 17:50:59;;;;;;;42.85;18.73;;;;;;;;;;5090811;28;20506;-68
2023/11/24 17:54:03;;;;;;;45.60;20.88;;;;;;;;;;5090587;28;20091;-68